createdAt,value
2022-09-27T00:01:25.541Z,19.95
2022-09-27T00:04:13.388Z,20.70
2022-09-27T00:06:47.355Z,20.25
2022-09-27T00:09:35.374Z,17.60
2022-09-27T00:12:10.236Z,17.00
2022-09-27T00:14:58.367Z,18.50
2022-09-27T00:17:32.366Z,25.42
2022-09-27T00:20:21.404Z,25.85
2022-09-27T00:22:55.487Z,18.23
2022-09-27T00:25:43.396Z,19.90
2022-09-27T00:28:17.708Z,19.35
2022-09-27T00:31:05.483Z,21.48
2022-09-27T00:34:00.394Z,23.05
2022-09-27T00:36:47.412Z,21.30
2022-09-27T00:39:21.466Z,17.98
2022-09-27T00:42:08.395Z,18.00
2022-09-27T00:44:42.516Z,23.77
2022-09-27T00:47:43.381Z,19.05
2022-09-27T00:50:31.458Z,17.63
2022-09-27T00:53:25.397Z,16.50
2022-09-27T00:56:08.500Z,15.05
2022-09-27T00:59:03.379Z,14.93
2022-09-27T01:01:37.551Z,19.27
2022-09-27T01:04:29.390Z,18.23
2022-09-27T01:07:03.477Z,17.55
2022-09-27T01:09:51.399Z,17.92
2022-09-27T01:12:30.465Z,19.90
2022-09-27T01:15:19.439Z,22.95
2022-09-27T01:18:03.492Z,22.52
2022-09-27T01:21:00.392Z,24.42
2022-09-27T01:23:49.509Z,22.92
2022-09-27T01:26:48.396Z,19.48
2022-09-27T01:29:31.484Z,19.08
2022-09-27T01:32:33.413Z,22.45
2022-09-27T01:35:07.564Z,23.42
2022-09-27T01:37:54.428Z,20.98
2022-09-27T01:40:35.549Z,19.98
2022-09-27T01:43:25.433Z,20.60
2022-09-27T01:46:10.488Z,18.85
2022-09-27T01:49:05.393Z,22.67
2022-09-27T01:51:55.385Z,23.75
2022-09-27T01:54:33.520Z,22.30
2022-09-27T01:57:30.410Z,27.38
2022-09-27T02:00:09.800Z,23.15
2022-09-27T02:03:06.483Z,21.85
2022-09-27T02:06:01.691Z,21.67
2022-09-27T02:08:49.426Z,23.70
2022-09-27T02:11:23.504Z,30.00
2022-09-27T02:14:14.426Z,29.67
2022-09-27T02:17:04.413Z,24.77
2022-09-27T02:19:55.443Z,24.50
2022-09-27T02:22:51.420Z,31.50
2022-09-27T02:25:27.255Z,25.80
2022-09-27T02:28:23.399Z,26.17
2022-09-27T02:30:57.647Z,23.85
2022-09-27T02:33:48.423Z,22.83
2022-09-27T02:36:22.833Z,23.13
2022-09-27T02:39:10.456Z,20.65
2022-09-27T02:41:44.405Z,20.50
2022-09-27T02:44:33.421Z,23.92
2022-09-27T02:47:31.395Z,23.75
2022-09-27T02:50:26.403Z,22.00
2022-09-27T02:53:38.883Z,22.88
2022-09-27T02:57:01.422Z,21.63
2022-09-27T02:59:35.356Z,22.23
2022-09-27T03:02:26.465Z,23.40
2022-09-27T03:05:02.784Z,21.20
2022-09-27T03:07:50.435Z,23.10
2022-09-27T03:10:28.469Z,27.63
2022-09-27T03:13:16.436Z,29.60
2022-09-27T03:16:10.407Z,29.95
2022-09-27T03:18:57.425Z,24.50
2022-09-27T03:21:31.496Z,22.20
2022-09-27T03:24:19.407Z,24.25
2022-09-27T03:26:53.518Z,26.88
2022-09-27T03:29:40.417Z,26.35
2022-09-27T03:32:21.432Z,23.45
2022-09-27T03:35:15.407Z,21.00
2022-09-27T03:40:36.664Z,24.80
2022-09-27T03:43:17.417Z,28.10
2022-09-27T03:45:57.640Z,30.13
2022-09-27T03:48:38.419Z,25.20
2022-09-27T03:51:19.548Z,27.55
2022-09-27T03:54:00.434Z,21.02
2022-09-27T03:56:41.517Z,25.52
2022-09-27T03:59:22.433Z,32.15
2022-09-27T04:02:02.548Z,26.20
2022-09-27T04:04:43.432Z,27.27
2022-09-27T04:07:23.774Z,31.15
2022-09-27T04:10:04.434Z,88.13
2022-09-27T04:12:47.466Z,108.25
2022-09-27T04:15:28.426Z,140.73
2022-09-27T04:18:23.438Z,138.02
2022-09-27T04:21:11.430Z,102.47
2022-09-27T04:23:46.774Z,70.68
2022-09-27T04:26:34.437Z,119.20
2022-09-27T04:29:09.707Z,107.22
2022-09-27T04:31:56.450Z,129.13
2022-09-27T04:34:55.416Z,126.57
2022-09-27T04:37:43.455Z,64.57
2022-09-27T04:40:17.657Z,86.47
2022-09-27T04:43:05.460Z,34.88
2022-09-27T04:45:46.681Z,72.57
2022-09-27T04:48:27.439Z,78.20
2022-09-27T04:51:09.535Z,80.80
2022-09-27T04:53:50.426Z,40.45
2022-09-27T04:56:31.532Z,59.85
2022-09-27T04:59:12.539Z,89.80
2022-09-27T05:01:53.754Z,60.08
2022-09-27T05:04:34.448Z,116.90
2022-09-27T05:07:15.581Z,101.68
2022-09-27T05:09:55.566Z,95.50
2022-09-27T05:12:36.522Z,120.32
2022-09-27T05:15:17.422Z,97.40
2022-09-27T05:17:58.929Z,125.68
2022-09-27T05:20:38.549Z,139.50
2022-09-27T05:23:20.312Z,79.85
2022-09-27T05:26:03.452Z,171.07
2022-09-27T05:28:53.453Z,99.85
2022-09-27T05:31:34.440Z,89.70
2022-09-27T05:34:15.544Z,85.95
2022-09-27T05:37:02.471Z,126.43
2022-09-27T05:39:49.492Z,95.82
2022-09-27T05:42:24.150Z,76.65
2022-09-27T05:45:11.442Z,121.35
2022-09-27T05:47:45.560Z,111.47
2022-09-27T05:50:33.457Z,116.55
2022-09-27T05:53:07.518Z,93.72
2022-09-27T05:55:55.462Z,80.18
2022-09-27T05:58:29.547Z,151.77
2022-09-27T06:01:17.496Z,86.93
2022-09-27T06:03:52.259Z,94.30
2022-09-27T06:06:42.433Z,95.10
2022-09-27T06:09:20.588Z,69.75
2022-09-27T06:12:08.480Z,61.85
2022-09-27T06:14:42.766Z,65.22
2022-09-27T06:17:29.457Z,67.32
2022-09-27T06:20:03.560Z,66.90
2022-09-27T06:22:52.492Z,59.22
2022-09-27T06:25:26.942Z,64.45
2022-09-27T06:28:14.463Z,59.63
2022-09-27T06:30:56.524Z,65.95
2022-09-27T06:33:37.538Z,62.28
2022-09-27T06:36:25.472Z,63.17
2022-09-27T06:39:01.720Z,72.55
2022-09-27T06:41:49.496Z,70.90
2022-09-27T06:44:24.405Z,73.60
2022-09-27T06:47:12.491Z,64.97
2022-09-27T06:49:46.910Z,58.30
2022-09-27T06:52:34.478Z,71.05
2022-09-27T06:55:08.937Z,60.50
2022-09-27T06:58:14.478Z,62.70
2022-09-27T07:00:54.848Z,67.57
2022-09-27T07:03:51.459Z,62.85
2022-09-27T07:06:45.460Z,70.53
2022-09-27T07:09:33.472Z,77.38
2022-09-27T07:12:07.539Z,68.75
2022-09-27T07:14:56.655Z,58.25
2022-09-27T07:17:30.543Z,72.03
2022-09-27T07:20:18.622Z,53.97
2022-09-27T07:22:52.587Z,55.55
2022-09-27T07:25:40.462Z,51.42
2022-09-27T07:28:19.622Z,53.90
2022-09-27T07:31:09.496Z,48.28
2022-09-27T07:33:43.806Z,52.47
2022-09-27T07:36:31.474Z,49.70
2022-09-27T07:39:08.564Z,51.45
2022-09-27T07:41:55.500Z,47.35
2022-09-27T07:44:36.477Z,49.58
2022-09-27T07:47:32.479Z,48.28
2022-09-27T07:50:26.464Z,41.47
2022-09-27T07:55:48.571Z,46.30
2022-09-27T07:58:29.481Z,48.38
2022-09-27T08:01:09.610Z,48.28
2022-09-27T08:03:51.461Z,44.10
2022-09-27T08:06:31.475Z,43.22
2022-09-27T08:09:05.568Z,39.88
2022-09-27T08:11:53.487Z,38.10
2022-09-27T08:14:27.597Z,39.88
2022-09-27T08:17:17.531Z,41.13
2022-09-27T08:19:51.574Z,41.40
2022-09-27T08:22:39.508Z,37.65
2022-09-27T08:25:14.342Z,35.58
2022-09-27T08:28:03.462Z,38.97
2022-09-27T08:30:38.652Z,34.22
2022-09-27T08:33:31.338Z,36.67
2022-09-27T08:36:06.559Z,46.40
2022-09-27T08:38:57.504Z,32.30
2022-09-27T08:41:33.457Z,37.85
2022-09-27T08:44:30.507Z,33.08
2022-09-27T08:47:25.143Z,34.67
2022-09-27T08:50:17.537Z,30.20
2022-09-27T08:52:54.665Z,28.33
2022-09-27T08:55:47.491Z,30.45
2022-09-27T08:58:32.591Z,26.60
2022-09-27T09:01:27.923Z,33.40
2022-09-27T09:04:04.665Z,24.02
2022-09-27T09:07:10.471Z,24.00
2022-09-27T09:09:59.617Z,23.48
2022-09-27T09:12:55.504Z,20.97
2022-09-27T09:15:54.302Z,19.08
2022-09-27T09:18:34.508Z,17.67
2022-09-27T09:21:15.574Z,19.35
2022-09-27T09:24:17.576Z,16.65
2022-09-27T09:27:01.730Z,18.40
2022-09-27T09:29:57.529Z,25.73
2022-09-27T09:32:44.717Z,17.23
2022-09-27T09:35:41.531Z,17.02
2022-09-27T09:38:28.653Z,15.55
2022-09-27T09:41:20.485Z,17.02
2022-09-27T09:44:10.792Z,16.45
2022-09-27T09:46:55.509Z,16.77
2022-09-27T09:49:57.528Z,16.02
2022-09-27T09:52:48.499Z,16.10
2022-09-27T09:55:36.545Z,15.73
2022-09-27T09:58:36.501Z,15.73
2022-09-27T10:01:36.494Z,18.20
2022-09-27T10:04:18.932Z,14.23
2022-09-27T10:07:06.509Z,19.52
2022-09-27T10:09:40.888Z,14.57
2022-09-27T10:12:28.491Z,15.02
2022-09-27T10:15:03.746Z,15.32
2022-09-27T10:17:57.563Z,15.05
2022-09-27T10:20:34.301Z,15.55
2022-09-27T10:23:27.547Z,15.63
2022-09-27T10:26:04.707Z,18.38
2022-09-27T10:28:55.521Z,18.13
2022-09-27T10:31:43.595Z,17.23
2022-09-27T10:34:30.212Z,12.80
2022-09-27T10:37:19.513Z,16.40
2022-09-27T10:40:00.712Z,15.40
2022-09-27T10:42:42.524Z,17.75
2022-09-27T10:45:40.648Z,14.88
2022-09-27T10:48:26.526Z,16.30
2022-09-27T10:51:11.611Z,11.70
2022-09-27T10:53:54.542Z,10.95
2022-09-27T10:56:40.620Z,10.93
2022-09-27T10:59:25.553Z,13.35
2022-09-27T11:02:06.892Z,11.77
2022-09-27T11:05:19.543Z,10.18
2022-09-27T11:08:04.633Z,13.20
2022-09-27T11:10:46.551Z,12.52
2022-09-27T11:13:39.535Z,11.82
2022-09-27T11:16:38.574Z,11.35
2022-09-27T11:19:37.645Z,12.35
2022-09-27T11:22:36.529Z,13.10
2022-09-27T11:25:50.524Z,13.60
2022-09-27T11:28:24.471Z,16.10
2022-09-27T11:31:19.630Z,14.93
2022-09-27T11:34:00.312Z,14.52
2022-09-27T11:36:55.561Z,13.77
2022-09-27T11:39:57.564Z,17.13
2022-09-27T11:42:45.550Z,16.05
2022-09-27T11:45:41.274Z,16.98
2022-09-27T11:48:29.612Z,18.15
2022-09-27T11:51:10.552Z,16.52
2022-09-27T11:54:01.579Z,15.15
2022-09-27T11:56:56.563Z,20.90
2022-09-27T11:59:44.550Z,15.50
2022-09-27T12:02:37.313Z,15.10
2022-09-27T12:05:42.555Z,15.60
2022-09-27T12:08:22.545Z,20.55
2022-09-27T12:11:17.561Z,15.98
2022-09-27T12:14:26.915Z,17.67
2022-09-27T12:17:08.607Z,16.60
2022-09-27T12:20:07.558Z,17.25
2022-09-27T12:23:04.564Z,16.95
2022-09-27T12:25:48.595Z,18.10
2022-09-27T12:28:47.561Z,18.17
2022-09-27T12:31:39.592Z,17.45
2022-09-27T12:34:29.594Z,19.42
2022-09-27T12:37:06.614Z,16.88
2022-09-27T12:40:25.649Z,18.67
2022-09-27T12:43:18.618Z,18.25
2022-09-27T12:45:58.573Z,18.60
2022-09-27T12:48:47.644Z,15.65
2022-09-27T12:51:29.575Z,17.33
2022-09-27T12:54:20.308Z,16.60
2022-09-27T12:57:18.216Z,15.23
2022-09-27T13:00:06.595Z,17.92
2022-09-27T13:03:16.177Z,15.45
2022-09-27T13:05:57.571Z,15.93
2022-09-27T13:09:05.592Z,16.65
2022-09-27T13:11:54.633Z,18.38
2022-09-27T13:14:46.546Z,17.73
2022-09-27T13:17:46.585Z,16.77
2022-09-27T13:20:44.577Z,15.18
2022-09-27T13:23:35.719Z,16.67
2022-09-27T13:26:37.551Z,16.15
2022-09-27T13:29:31.556Z,18.25
2022-09-27T13:32:12.591Z,20.17
2022-09-27T13:35:03.566Z,20.17
2022-09-27T13:37:40.790Z,20.10
2022-09-27T13:40:34.644Z,16.02
2022-09-27T13:43:26.994Z,17.05
2022-09-27T13:46:22.662Z,15.13
2022-09-27T13:49:02.650Z,15.65
2022-09-27T13:52:01.580Z,15.90
2022-09-27T13:54:42.071Z,18.65
2022-09-27T13:57:47.615Z,15.40
2022-09-27T14:00:38.599Z,17.33
2022-09-27T14:04:02.576Z,18.38
2022-09-27T14:06:52.582Z,16.98
2022-09-27T14:09:41.631Z,21.80
2022-09-27T14:12:34.146Z,17.08
2022-09-27T14:15:30.602Z,18.38
2022-09-27T14:18:04.650Z,21.33
2022-09-27T14:20:57.587Z,21.15
2022-09-27T14:23:38.606Z,17.50
2022-09-27T14:26:36.602Z,16.45
2022-09-27T14:29:21.218Z,19.27
2022-09-27T14:32:18.570Z,17.90
2022-09-27T14:35:38.481Z,17.25
2022-09-27T14:38:38.227Z,24.40
2022-09-27T14:41:19.582Z,22.27
2022-09-27T14:44:00.812Z,20.65
2022-09-27T14:46:40.612Z,17.90
2022-09-27T14:49:38.605Z,19.90
2022-09-27T14:52:18.531Z,22.05
2022-09-27T14:55:09.608Z,20.25
2022-09-27T14:57:54.232Z,28.33
2022-09-27T15:00:43.585Z,20.67
2022-09-27T15:05:52.580Z,22.80
2022-09-27T15:08:35.909Z,24.70
2022-09-27T15:11:24.601Z,22.88
2022-09-27T15:14:01.835Z,23.52
2022-09-27T15:19:25.595Z,24.17
2022-09-27T15:22:06.592Z,24.67
2022-09-27T15:25:00.584Z,21.60
2022-09-27T15:27:47.605Z,17.17
2022-09-27T15:30:27.774Z,18.13
2022-09-27T15:33:31.582Z,22.25
2022-09-27T15:36:10.735Z,22.80
2022-09-27T15:39:13.603Z,22.13
2022-09-27T15:42:06.740Z,25.80
2022-09-27T15:44:55.620Z,27.27
2022-09-27T15:47:39.076Z,22.00
2022-09-27T15:50:31.587Z,19.52
2022-09-27T15:53:06.882Z,22.48
2022-09-27T15:55:54.601Z,29.83
2022-09-27T15:58:28.701Z,22.33
2022-09-27T16:01:31.696Z,25.00
2022-09-27T16:04:25.599Z,31.60
2022-09-27T16:07:15.642Z,24.40
2022-09-27T16:09:51.893Z,29.38
2022-09-27T16:12:39.655Z,22.60
2022-09-27T16:15:20.642Z,24.52
2022-09-27T16:18:14.587Z,25.45
2022-09-27T16:21:01.599Z,26.33
2022-09-27T16:23:42.658Z,21.65
2022-09-27T16:26:29.628Z,25.35
2022-09-27T16:29:03.697Z,20.83
2022-09-27T16:31:51.675Z,16.50
2022-09-27T16:34:25.760Z,19.30
2022-09-27T16:37:13.649Z,18.17
2022-09-27T16:39:54.652Z,19.58
2022-09-27T16:42:50.600Z,20.73
2022-09-27T16:45:39.641Z,20.83
2022-09-27T16:48:13.724Z,22.88
2022-09-27T16:51:21.204Z,21.33
2022-09-27T16:53:55.734Z,19.58
2022-09-27T16:56:43.626Z,19.95
2022-09-27T16:59:17.757Z,23.08
2022-09-27T17:02:05.700Z,22.52
2022-09-27T17:04:39.859Z,25.45
2022-09-27T17:07:27.657Z,21.10
2022-09-27T17:10:01.710Z,25.88
2022-09-27T17:12:48.756Z,24.17
2022-09-27T17:15:23.882Z,29.58
2022-09-27T17:18:10.735Z,24.98
2022-09-27T17:20:44.738Z,21.60
2022-09-27T17:23:31.790Z,22.88
2022-09-27T17:26:14.801Z,24.77
2022-09-27T17:29:03.742Z,20.33
2022-09-27T17:31:46.739Z,26.55
2022-09-27T17:34:40.857Z,28.70
2022-09-27T17:37:34.680Z,31.85
2022-09-27T17:42:57.709Z,25.23
2022-09-27T17:45:31.804Z,28.08
2022-09-27T17:48:37.787Z,27.38
2022-09-27T17:51:11.757Z,25.65
2022-09-27T17:53:59.631Z,25.98
2022-09-27T17:56:33.816Z,22.88
2022-09-27T17:59:22.768Z,21.33
2022-09-27T18:01:57.525Z,21.33
2022-09-27T18:04:45.774Z,24.17
2022-09-27T18:07:20.143Z,22.98
2022-09-27T18:10:07.833Z,30.98
2022-09-27T18:12:43.480Z,24.30
2022-09-27T18:15:31.829Z,29.98
2022-09-27T18:18:05.857Z,22.67
2022-09-27T18:20:52.847Z,24.35
2022-09-27T18:23:26.869Z,28.40
2022-09-27T18:26:17.883Z,23.98
2022-09-27T18:28:54.539Z,27.40
2022-09-27T18:31:47.514Z,27.13
2022-09-27T18:34:30.977Z,26.60
2022-09-27T18:37:18.408Z,28.38
2022-09-27T18:39:58.777Z,25.70
2022-09-27T18:42:38.786Z,27.80
2022-09-27T18:45:19.890Z,26.13
2022-09-27T18:47:59.749Z,25.08
2022-09-27T18:50:45.201Z,27.65
2022-09-27T18:53:25.711Z,28.65
2022-09-27T18:56:08.747Z,27.13
2022-09-27T18:58:49.871Z,29.60
2022-09-27T19:01:33.891Z,27.90
2022-09-27T19:04:17.516Z,27.25
2022-09-27T19:07:00.785Z,27.30
2022-09-27T19:09:40.931Z,27.98
2022-09-27T19:12:21.876Z,29.05
2022-09-27T19:15:01.847Z,27.55
2022-09-27T19:17:49.868Z,35.97
2022-09-27T19:20:29.726Z,35.00
2022-09-27T19:23:10.749Z,30.23
2022-09-27T19:25:50.680Z,27.02
2022-09-27T19:28:38.754Z,30.90
2022-09-27T19:31:20.354Z,28.40
2022-09-27T19:34:07.682Z,25.50
2022-09-27T19:36:41.622Z,30.88
2022-09-27T19:39:29.655Z,28.05
2022-09-27T19:42:03.655Z,24.58
2022-09-27T19:44:51.678Z,27.52
2022-09-27T19:47:25.885Z,28.65
2022-09-27T19:50:13.740Z,30.60
2022-09-27T19:52:47.702Z,34.47
2022-09-27T19:55:35.700Z,30.13
2022-09-27T19:58:09.614Z,30.70
2022-09-27T20:00:57.687Z,29.58
2022-09-27T20:03:31.627Z,27.48
2022-09-27T20:06:21.713Z,33.88
2022-09-27T20:08:58.577Z,27.23
2022-09-27T20:11:46.689Z,26.27
2022-09-27T20:14:26.692Z,29.70
2022-09-27T20:17:08.198Z,23.55
2022-09-27T20:19:48.669Z,25.55
2022-09-27T20:22:36.681Z,30.20
2022-09-27T20:25:10.709Z,25.13
2022-09-27T20:27:58.675Z,23.63
2022-09-27T20:30:32.930Z,27.17
2022-09-27T20:33:38.704Z,24.40
2022-09-27T20:36:20.463Z,26.10
2022-09-27T20:39:15.797Z,20.92
2022-09-27T20:41:57.707Z,20.70
2022-09-27T20:44:45.670Z,24.17
2022-09-27T20:47:26.688Z,23.00
2022-09-27T20:50:14.698Z,23.10
2022-09-27T20:52:48.620Z,21.75
2022-09-27T20:55:36.674Z,20.83
2022-09-27T20:58:30.653Z,23.73
2022-09-27T21:03:52.688Z,21.52
2022-09-27T21:06:33.690Z,24.27
2022-09-27T21:09:25.691Z,21.77
2022-09-27T21:11:59.769Z,24.65
2022-09-27T21:14:46.702Z,23.05
2022-09-27T21:17:20.776Z,13.93
2022-09-27T21:20:08.711Z,15.18
2022-09-27T21:22:49.706Z,9.65
2022-09-27T21:25:43.698Z,6.32
2022-09-27T21:28:30.703Z,4.93
2022-09-27T21:31:04.892Z,3.92
2022-09-27T21:33:55.693Z,3.75
2022-09-27T21:36:37.706Z,3.78
2022-09-27T21:39:18.657Z,4.15
2022-09-27T21:42:06.711Z,6.97
2022-09-27T21:45:00.696Z,3.50
2022-09-27T21:47:47.723Z,4.13
2022-09-27T21:50:21.739Z,4.47
2022-09-27T21:53:08.693Z,3.75
2022-09-27T21:55:43.071Z,3.80
2022-09-27T21:58:30.695Z,3.83
2022-09-27T22:01:11.774Z,4.70
2022-09-27T22:04:06.673Z,3.60
2022-09-27T22:06:54.702Z,2.75
2022-09-27T22:09:35.706Z,3.50
2022-09-27T22:12:22.696Z,4.43
2022-09-27T22:14:56.777Z,3.30
2022-09-27T22:17:43.704Z,5.28
2022-09-27T22:20:24.733Z,3.08
2022-09-27T22:23:18.681Z,2.70
2022-09-27T22:26:06.718Z,2.88
2022-09-27T22:28:47.696Z,2.45
2022-09-27T22:31:35.738Z,2.78
2022-09-27T22:34:16.137Z,2.50
2022-09-27T22:37:04.723Z,3.72
2022-09-27T22:39:38.805Z,3.08
2022-09-27T22:51:19.073Z,5.80
2022-09-27T22:54:29.695Z,3.75
2022-09-27T22:57:03.944Z,4.00
2022-09-27T22:59:51.720Z,4.40
2022-09-27T23:02:25.652Z,8.68
2022-09-27T23:05:13.728Z,5.93
2022-09-27T23:07:48.232Z,4.88
2022-09-27T23:10:35.806Z,3.63
2022-09-27T23:13:16.734Z,4.38
2022-09-27T23:15:57.831Z,5.63
2022-09-27T23:18:38.703Z,4.35
2022-09-27T23:21:22.850Z,5.18
2022-09-27T23:24:05.727Z,8.05
2022-09-27T23:27:13.721Z,8.23
2022-09-27T23:29:47.676Z,6.78
2022-09-27T23:32:35.712Z,6.38
2022-09-27T23:35:09.929Z,8.02
2022-09-27T23:37:57.758Z,12.00
2022-09-27T23:40:37.769Z,7.95
2022-09-27T23:43:18.811Z,8.48
2022-09-27T23:46:01.711Z,6.47
2022-09-27T23:48:42.861Z,6.45
2022-09-27T23:51:24.723Z,6.28
2022-09-27T23:54:05.789Z,6.43
2022-09-27T23:56:45.716Z,6.60
2022-09-27T23:59:27.251Z,5.28
